x

Passage Island, Mi (pilm4) Weather Station

6:00am - Tue 16th Sep 2014 All times are CDT. -5 hours from GMT.

  • Wind
    20mph, 22mph gusts
  • Air Temp 51°f
  • Sea Pressure 1016.9mb
  • Passage Island, Mi
  • Passage Island, Mi

More Historic Weather Station data

Upgrade to MSW Pro to gain access to the past 30 days of data for over 8000 Wavebouys and Weather Stations around the globe.

Join Pro

Comparision Forecast

View Surf forecast
   
Tue 09/16 6:00am 20 22 mph 1016.9mb 51f
5:00am 20 22 mph 1017.1mb 52f
4:00am 24 25 mph 1017.5mb 51f
3:00am 25 28 mph 1017.8mb 51f
2:00am 29 31 mph 1017.9mb 51f
1:00am 26 29 mph 1018.1mb 51f
12:00am 25 28 mph 1018.2mb 51f
Mon 09/15 11:00pm 20 22 mph 1018.5mb 52f
10:00pm 18 20 mph 1018.9mb 51f
9:00pm 21 22 mph 1019.1mb 51f
8:00pm 16 18 mph 1019.3mb 51f
7:00pm 16 17 mph 1019.4mb 51f
6:00pm 16 17 mph 1019.5mb 52f
5:00pm 16 17 mph 1019.4mb 51f
4:00pm 21 23 mph 1019.5mb 50f
3:00pm 20 22 mph 1020mb 49f
2:00pm 16 17 mph 1019.9mb 50f
1:00pm 7 8 mph 1020.3mb 49f
12:00pm 15 16 mph 1020.4mb 47f
11:00am 13 14 mph 1020.6mb 47f
10:00am 17 18 mph 1020.3mb 47f
9:00am 15
mph
1020.2mb 48f
8:00am 14
mph
1019.9mb 48f
7:00am 9 10 mph 1019.7mb 48f
6:00am 14 16 mph 1019.3mb 48f
5:00am 15 17 mph 1018.9mb 48f
4:00am 15 17 mph 1018.7mb 49f
3:00am 9 10 mph 1018.9mb 48f
2:00am 10
mph
1018.6mb 49f
1:00am 16 18 mph 1018.1mb 50f
12:00am 21 23 mph 1017.8mb 50f
Sun 09/14 11:00pm 20
mph
1017.4mb 50f
10:00pm 22 23 mph 1016.7mb 51f
9:00pm 20 21 mph 1016.4mb 49f
8:00pm 26 29 mph 1015.8mb 51f
7:00pm 24 26 mph 1015.6mb 51f
6:00pm 23 24 mph 1015.4mb 52f
5:00pm 8 9 mph 1015.4mb 50f
4:00pm 21 22 mph 1015.1mb 53f
3:00pm 14 16 mph 1015.5mb 50f
2:00pm 25 28 mph 1015.7mb 49f
1:00pm 21 22 mph 1016mb 48f
12:00pm 18 21 mph 1016.4mb 47f
11:00am 23 25 mph 1016.9mb 47f
10:00am 17 18 mph 1017.3mb 47f
9:00am 18 21 mph 1018mb 46f
8:00am 21 23 mph 1018.4mb 47f
7:00am 17 22 mph 1019.1mb 47f
6:00am 18 20 mph 1019.8mb 47f
5:00am 21 23 mph 1020.6mb 46f
4:00am 16 17 mph 1021.5mb 46f
3:00am 17 20 mph 1021.9mb 47f
2:00am 18 20 mph 1022.6mb 47f
1:00am 15 17 mph 1023.1mb 47f
12:00am 10 11 mph 1023.6mb 46f
Sat 09/13 11:00pm 14 15 mph 1024.2mb 46f
10:00pm 15
mph
1024.6mb 46f
9:00pm 11 15 mph 1024.8mb 48f
8:00pm 13 14 mph 1024.8mb 49f
7:00pm 15 16 mph 1024.5mb 48f
6:00pm 17
mph
1024.6mb 48f
5:00pm 16 18 mph 1024.7mb 48f
4:00pm 17 18 mph 1024.7mb 49f
3:00pm 13 14 mph 1025.3mb 48f
2:00pm 9 10 mph 1025.6mb 49f
1:00pm 10
mph
1026.2mb 48f
12:00pm 9 10 mph 1026.6mb 46f
11:00am 14 15 mph 1026.7mb 48f
10:00am 14
mph
1026.6mb 47f
9:00am 10 11 mph 1026.4mb 47f
8:00am 11 13 mph 1026.2mb 46f
7:00am 13
mph
1026.3mb 46f
6:00am 11
mph
1026.2mb 46f
5:00am 13 14 mph 1026.3mb 45f
4:00am 10 11 mph 1026.3mb 46f
3:00am 10
mph
1026.5mb 45f
2:00am 8 9 mph 1026.7mb 45f
1:00am 8
mph
1026.9mb 45f
12:00am 8 9 mph 1027.1mb 45f
Fri 09/12 11:00pm 6
mph
1027.6mb 44f
10:00pm 3 5 mph 1027.8mb 44f
9:00pm 7
mph
1028mb 44f
8:00pm 11 13 mph 1028.1mb 44f
7:00pm 11
mph
1028.1mb 43f
6:00pm 11 13 mph 1028.4mb 43f
5:00pm 10 11 mph 1028.4mb 44f
4:00pm 9
mph
1028.6mb 44f
3:00pm 7 8 mph 1029.2mb 44f
2:00pm 7
mph
1029.8mb 44f
1:00pm 6 7 mph 1030.2mb 44f